Time,TemperatureF,DewpointF,PressureIn,WindDirection,WindDirectionDegrees,WindSpeedMPH,WindSpeedGustMPH,Humidity,HourlyPrecipIn,Conditions,Clouds,dailyrainin,SoftwareType,DateUTC
2014-10-31 00:04:00,38.7,37.7,30.05,ESE,108,0.0,0.0,96,0.00,,,0.00,Wunderground v.1.15,2014-10-31 04:04:00,
2014-10-31 00:10:00,38.8,37.8,30.05,ESE,108,0.0,0.0,96,0.00,,,0.00,Wunderground v.1.15,2014-10-31 04:10:00,
2014-10-31 00:15:00,38.8,37.8,30.05,ESE,108,0.0,0.0,96,0.00,,,0.00,Wunderground v.1.15,2014-10-31 04:15:00,
2014-10-31 00:22:00,38.8,37.5,30.06,ESE,109,0.0,0.0,95,0.00,,,0.00,Wunderground v.1.15,2014-10-31 04:22:00,
2014-10-31 00:28:00,39.1,37.8,30.06,ESE,108,0.0,0.0,95,0.00,,,0.00,Wunderground v.1.15,2014-10-31 04:28:00,
2014-10-31 00:34:00,39.1,37.8,30.06,ESE,109,0.0,0.0,95,0.00,,,0.00,Wunderground v.1.15,2014-10-31 04:34:00,
2014-10-31 00:39:00,39.1,37.8,30.06,ESE,108,0.0,0.0,95,0.00,,,0.00,Wunderground v.1.15,2014-10-31 04:39:00,
2014-10-31 00:45:00,39.1,37.8,30.06,ESE,108,0.0,0.0,95,0.00,,,0.00,Wunderground v.1.15,2014-10-31 04:45:00,
2014-10-31 00:51:00,39.1,37.8,30.06,ESE,108,0.0,0.0,95,0.00,,,0.00,Wunderground v.1.15,2014-10-31 04:51:00,
2014-10-31 00:56:00,39.0,37.7,30.06,ESE,108,0.0,0.0,95,0.00,,,0.00,Wunderground v.1.15,2014-10-31 04:56:00,
2014-10-31 01:01:00,39.0,37.4,30.06,ESE,108,0.0,0.0,94,0.00,,,0.00,Wunderground v.1.15,2014-10-31 05:01:00,
2014-10-31 01:07:00,39.1,37.5,30.06,ESE,108,0.0,0.0,94,0.00,,,0.00,Wunderground v.1.15,2014-10-31 05:07:00,
2014-10-31 01:13:00,39.1,37.5,30.06,ESE,108,0.0,0.0,94,0.00,,,0.00,Wunderground v.1.15,2014-10-31 05:13:00,
2014-10-31 01:19:00,39.2,37.6,30.06,ESE,108,0.0,0.0,94,0.00,,,0.00,Wunderground v.1.15,2014-10-31 05:19:00,
2014-10-31 01:24:00,39.2,37.3,30.06,ESE,108,0.0,0.0,93,0.00,,,0.00,Wunderground v.1.15,2014-10-31 05:24:00,
2014-10-31 01:30:00,39.1,37.2,30.06,ESE,108,0.0,0.0,93,0.00,,,0.00,Wunderground v.1.15,2014-10-31 05:30:00,
2014-10-31 01:36:00,39.2,37.3,30.06,ESE,109,0.0,0.0,93,0.00,,,0.00,Wunderground v.1.15,2014-10-31 05:36:00,
2014-10-31 01:42:00,39.1,37.0,30.07,ESE,108,0.0,0.0,92,0.00,,,0.00,Wunderground v.1.15,2014-10-31 05:42:00,
2014-10-31 01:47:00,39.1,37.0,30.07,ESE,108,0.0,0.0,92,0.00,,,0.00,Wunderground v.1.15,2014-10-31 05:47:00,
2014-10-31 01:53:00,39.1,37.0,30.06,ESE,109,0.0,0.0,92,0.00,,,0.00,Wunderground v.1.15,2014-10-31 05:53:00,
2014-10-31 01:59:00,39.1,37.0,30.06,ESE,108,0.0,0.0,92,0.00,,,0.00,Wunderground v.1.15,2014-10-31 05:59:00,
2014-10-31 02:04:00,39.1,37.0,30.06,ESE,109,0.0,0.0,92,0.00,,,0.00,Wunderground v.1.15,2014-10-31 06:04:00,
2014-10-31 02:09:00,39.1,37.0,30.06,ESE,108,0.0,0.0,92,0.00,,,0.00,Wunderground v.1.15,2014-10-31 06:09:00,
2014-10-31 02:14:00,39.1,37.2,30.07,ESE,108,0.0,0.0,93,0.00,,,0.00,Wunderground v.1.15,2014-10-31 06:14:00,
2014-10-31 02:19:00,39.1,37.2,30.06,ESE,108,0.0,0.0,93,0.00,,,0.00,Wunderground v.1.15,2014-10-31 06:19:00,
2014-10-31 02:24:00,39.1,37.0,30.06,ESE,108,0.0,0.0,92,0.00,,,0.00,Wunderground v.1.15,2014-10-31 06:24:00,
2014-10-31 02:29:00,39.0,36.6,30.06,ESE,108,0.0,0.0,91,0.00,,,0.00,Wunderground v.1.15,2014-10-31 06:29:00,
2014-10-31 02:34:00,39.0,36.6,30.06,ESE,109,0.0,0.0,91,0.00,,,0.00,Wunderground v.1.15,2014-10-31 06:34:00,
2014-10-31 02:39:00,39.1,37.0,30.06,ESE,108,0.0,0.0,92,0.00,,,0.00,Wunderground v.1.15,2014-10-31 06:39:00,
2014-10-31 02:44:00,39.1,37.0,30.06,ESE,109,0.0,0.0,92,0.00,,,0.00,Wunderground v.1.15,2014-10-31 06:44:00,
2014-10-31 02:49:00,39.1,37.0,30.05,ESE,108,0.0,0.0,92,0.00,,,0.00,Wunderground v.1.15,2014-10-31 06:49:00,
2014-10-31 02:54:00,39.1,37.0,30.06,ESE,108,0.0,0.0,92,0.00,,,0.00,Wunderground v.1.15,2014-10-31 06:54:00,
2014-10-31 02:59:00,38.8,36.7,30.05,ESE,108,0.0,0.0,92,0.00,,,0.00,Wunderground v.1.15,2014-10-31 06:59:00,
2014-10-31 03:04:00,38.5,36.4,30.05,ESE,108,0.0,0.0,92,0.00,,,0.00,Wunderground v.1.15,2014-10-31 07:04:00,
2014-10-31 03:09:00,38.2,36.1,30.05,ESE,108,0.0,0.0,92,0.00,,,0.00,Wunderground v.1.15,2014-10-31 07:09:00,
2014-10-31 03:14:00,37.9,35.8,30.05,ESE,109,0.0,0.0,92,0.00,,,0.00,Wunderground v.1.15,2014-10-31 07:14:00,
2014-10-31 03:19:00,37.6,35.8,30.05,ESE,109,0.0,0.0,93,0.00,,,0.00,Wunderground v.1.15,2014-10-31 07:19:00,
2014-10-31 03:24:00,37.3,35.5,30.05,ESE,108,0.0,0.0,93,0.00,,,0.00,Wunderground v.1.15,2014-10-31 07:24:00,
2014-10-31 03:29:00,36.9,35.1,30.05,ESE,108,0.0,0.0,93,0.00,,,0.00,Wunderground v.1.15,2014-10-31 07:29:00,
2014-10-31 03:34:00,36.5,34.7,30.05,ESE,109,0.0,0.0,93,0.00,,,0.00,Wunderground v.1.15,2014-10-31 07:34:00,
2014-10-31 03:39:00,36.2,34.6,30.05,ESE,108,0.0,0.0,94,0.00,,,0.00,Wunderground v.1.15,2014-10-31 07:39:00,
2014-10-31 03:44:00,36.0,34.4,30.06,ESE,108,0.0,0.0,94,0.00,,,0.00,Wunderground v.1.15,2014-10-31 07:44:00,
2014-10-31 03:49:00,35.9,34.3,30.06,ESE,108,0.0,0.0,94,0.00,,,0.00,Wunderground v.1.15,2014-10-31 07:49:00,
2014-10-31 03:54:00,35.6,34.0,30.06,ESE,108,0.0,0.0,94,0.00,,,0.00,Wunderground v.1.15,2014-10-31 07:54:00,
2014-10-31 03:59:00,35.5,33.9,30.06,ESE,109,0.0,0.0,94,0.00,,,0.00,Wunderground v.1.15,2014-10-31 07:59:00,
2014-10-31 04:04:00,35.5,34.2,30.06,ESE,109,0.0,0.0,95,0.00,,,0.00,Wunderground v.1.15,2014-10-31 08:04:00,
2014-10-31 04:09:00,35.5,34.2,30.06,ESE,109,0.0,0.0,95,0.00,,,0.00,Wunderground v.1.15,2014-10-31 08:09:00,
2014-10-31 04:14:00,35.7,34.4,30.06,ESE,108,0.0,0.0,95,0.00,,,0.00,Wunderground v.1.15,2014-10-31 08:14:00,
2014-10-31 04:19:00,35.8,34.5,30.06,ESE,108,0.0,0.0,95,0.00,,,0.00,Wunderground v.1.15,2014-10-31 08:19:00,
2014-10-31 04:24:00,35.9,34.6,30.06,ESE,108,0.0,0.0,95,0.00,,,0.00,Wunderground v.1.15,2014-10-31 08:24:00,
2014-10-31 04:29:00,36.0,34.7,30.06,ESE,109,0.0,0.0,95,0.00,,,0.00,Wunderground v.1.15,2014-10-31 08:29:00,
2014-10-31 04:34:00,36.1,34.8,30.06,ESE,108,0.0,0.0,95,0.00,,,0.00,Wunderground v.1.15,2014-10-31 08:34:00,
2014-10-31 04:39:00,36.2,34.9,30.06,ESE,108,0.0,0.0,95,0.00,,,0.00,Wunderground v.1.15,2014-10-31 08:39:00,
2014-10-31 04:44:00,36.3,35.0,30.06,ESE,109,0.0,0.0,95,0.00,,,0.00,Wunderground v.1.15,2014-10-31 08:44:00,
2014-10-31 04:49:00,36.3,35.0,30.06,ESE,109,0.0,0.0,95,0.00,,,0.00,Wunderground v.1.15,2014-10-31 08:49:00,
2014-10-31 04:54:00,36.4,35.1,30.06,ESE,109,0.0,0.0,95,0.00,,,0.00,Wunderground v.1.15,2014-10-31 08:54:00,
2014-10-31 04:59:00,36.4,35.1,30.06,ESE,108,0.0,0.0,95,0.00,,,0.00,Wunderground v.1.15,2014-10-31 08:59:00,
2014-10-31 05:04:00,36.4,35.1,30.06,ESE,108,0.0,0.0,95,0.00,,,0.00,Wunderground v.1.15,2014-10-31 09:04:00,
2014-10-31 05:09:00,36.4,35.1,30.06,ESE,109,0.0,0.0,95,0.00,,,0.00,Wunderground v.1.15,2014-10-31 09:09:00,
2014-10-31 05:14:00,36.5,35.2,30.07,ESE,108,0.0,0.0,95,0.00,,,0.00,Wunderground v.1.15,2014-10-31 09:14:00,
2014-10-31 05:19:00,36.5,34.9,30.07,ESE,108,0.0,0.0,94,0.00,,,0.00,Wunderground v.1.15,2014-10-31 09:19:00,
2014-10-31 05:24:00,36.5,34.9,30.07,ESE,108,0.0,0.0,94,0.00,,,0.00,Wunderground v.1.15,2014-10-31 09:24:00,
2014-10-31 05:29:00,36.6,35.0,30.07,ESE,108,0.0,0.0,94,0.00,,,0.00,Wunderground v.1.15,2014-10-31 09:29:00,
2014-10-31 05:34:00,36.7,35.1,30.07,ESE,108,0.0,0.0,94,0.00,,,0.00,Wunderground v.1.15,2014-10-31 09:34:00,
2014-10-31 05:39:00,36.7,35.1,30.07,ESE,108,0.0,0.0,94,0.00,,,0.00,Wunderground v.1.15,2014-10-31 09:39:00,
2014-10-31 05:44:00,36.8,35.2,30.07,ESE,108,0.0,0.0,94,0.00,,,0.00,Wunderground v.1.15,2014-10-31 09:44:00,
2014-10-31 05:49:00,36.9,35.3,30.07,ESE,108,0.0,0.0,94,0.00,,,0.00,Wunderground v.1.15,2014-10-31 09:49:00,
2014-10-31 05:54:00,36.9,35.3,30.07,ESE,108,0.0,0.0,94,0.00,,,0.00,Wunderground v.1.15,2014-10-31 09:54:00,
2014-10-31 05:59:00,36.9,35.3,30.07,ESE,108,0.0,0.0,94,0.00,,,0.00,Wunderground v.1.15,2014-10-31 09:59:00,
2014-10-31 06:04:00,37.1,35.5,30.07,ESE,108,0.0,0.0,94,0.00,,,0.00,Wunderground v.1.15,2014-10-31 10:04:00,
2014-10-31 06:09:00,37.1,35.5,30.08,ESE,108,0.0,0.0,94,0.00,,,0.00,Wunderground v.1.15,2014-10-31 10:09:00,
2014-10-31 06:14:00,37.2,35.6,30.08,ESE,108,0.0,0.0,94,0.00,,,0.00,Wunderground v.1.15,2014-10-31 10:14:00,
2014-10-31 06:19:00,37.3,35.7,30.08,ESE,108,0.0,0.0,94,0.00,,,0.00,Wunderground v.1.15,2014-10-31 10:19:00,
2014-10-31 06:24:00,37.3,35.7,30.08,ESE,108,0.0,0.0,94,0.00,,,0.00,Wunderground v.1.15,2014-10-31 10:24:00,
2014-10-31 06:29:00,37.3,36.0,30.08,ESE,109,0.0,0.0,95,0.00,,,0.00,Wunderground v.1.15,2014-10-31 10:29:00,
2014-10-31 06:34:00,37.4,36.1,30.08,ESE,108,0.0,0.0,95,0.00,,,0.00,Wunderground v.1.15,2014-10-31 10:34:00,
2014-10-31 06:39:00,37.4,36.1,30.08,ESE,108,0.0,0.0,95,0.00,,,0.00,Wunderground v.1.15,2014-10-31 10:39:00,
2014-10-31 06:44:00,37.5,36.2,30.08,ESE,108,0.0,0.0,95,0.00,,,0.00,Wunderground v.1.15,2014-10-31 10:44:00,
2014-10-31 06:49:00,37.6,36.3,30.08,ESE,108,0.0,0.0,95,0.00,,,0.00,Wunderground v.1.15,2014-10-31 10:49:00,
2014-10-31 06:54:00,37.5,36.2,30.08,ESE,108,0.0,0.0,95,0.00,,,0.00,Wunderground v.1.15,2014-10-31 10:54:00,
2014-10-31 06:59:00,37.5,36.2,30.08,ESE,108,0.0,0.0,95,0.00,,,0.00,Wunderground v.1.15,2014-10-31 10:59:00,
2014-10-31 07:04:00,37.5,36.2,30.08,ESE,109,0.0,0.0,95,0.00,,,0.00,Wunderground v.1.15,2014-10-31 11:04:00,
2014-10-31 07:09:00,37.5,36.2,30.08,ESE,108,0.0,0.0,95,0.00,,,0.00,Wunderground v.1.15,2014-10-31 11:09:00,
2014-10-31 07:14:00,37.4,35.8,30.08,ESE,108,0.0,0.0,94,0.00,,,0.00,Wunderground v.1.15,2014-10-31 11:14:00,
2014-10-31 07:19:00,37.4,36.1,30.08,ESE,108,0.0,0.0,95,0.00,,,0.00,Wunderground v.1.15,2014-10-31 11:19:00,
2014-10-31 07:24:00,37.5,36.2,30.08,ESE,108,0.0,0.0,95,0.00,,,0.00,Wunderground v.1.15,2014-10-31 11:24:00,
2014-10-31 07:29:00,37.6,36.3,30.08,ESE,108,0.0,0.0,95,0.00,,,0.00,Wunderground v.1.15,2014-10-31 11:29:00,
2014-10-31 07:34:00,37.4,35.8,30.08,ESE,108,0.0,0.0,94,0.00,,,0.00,Wunderground v.1.15,2014-10-31 11:34:00,
2014-10-31 07:39:00,37.4,35.8,30.08,ESE,108,0.0,0.0,94,0.00,,,0.00,Wunderground v.1.15,2014-10-31 11:39:00,
2014-10-31 07:44:00,37.4,35.8,30.08,ESE,109,0.0,0.0,94,0.00,,,0.00,Wunderground v.1.15,2014-10-31 11:44:00,
2014-10-31 07:49:00,37.5,35.9,30.08,ESE,108,0.0,0.0,94,0.00,,,0.00,Wunderground v.1.15,2014-10-31 11:49:00,
2014-10-31 07:54:00,37.6,36.0,30.08,ESE,108,0.0,0.0,94,0.00,,,0.00,Wunderground v.1.15,2014-10-31 11:54:00,
2014-10-31 07:59:00,37.7,36.1,30.08,ESE,108,0.0,0.0,94,0.00,,,0.00,Wunderground v.1.15,2014-10-31 11:59:00,
2014-10-31 08:04:00,37.8,36.2,30.09,ESE,108,0.0,0.0,94,0.00,,,0.00,Wunderground v.1.15,2014-10-31 12:04:00,
2014-10-31 08:09:00,37.9,36.3,30.09,ESE,108,0.0,0.0,94,0.00,,,0.00,Wunderground v.1.15,2014-10-31 12:09:00,
2014-10-31 08:14:00,38.0,36.4,30.09,ESE,108,0.0,0.0,94,0.00,,,0.00,Wunderground v.1.15,2014-10-31 12:14:00,
2014-10-31 08:19:00,38.1,36.5,30.09,ESE,109,0.0,0.0,94,0.00,,,0.00,Wunderground v.1.15,2014-10-31 12:19:00,
2014-10-31 08:24:00,38.3,36.7,30.09,ESE,108,0.0,0.0,94,0.00,,,0.00,Wunderground v.1.15,2014-10-31 12:24:00,
2014-10-31 08:29:00,38.5,36.9,30.09,ESE,109,0.0,0.0,94,0.00,,,0.00,Wunderground v.1.15,2014-10-31 12:29:00,
2014-10-31 08:34:00,38.7,37.1,30.09,ESE,106,0.0,0.0,94,0.00,,,0.00,Wunderground v.1.15,2014-10-31 12:34:00,
2014-10-31 08:39:00,38.9,37.3,30.09,ESE,105,0.0,1.0,94,0.00,,,0.00,Wunderground v.1.15,2014-10-31 12:39:00,
2014-10-31 08:44:00,39.1,37.2,30.09,ESE,106,0.0,0.0,93,0.00,,,0.00,Wunderground v.1.15,2014-10-31 12:44:00,
2014-10-31 08:49:00,39.3,37.2,30.09,ESE,106,0.0,1.0,92,0.00,,,0.00,Wunderground v.1.15,2014-10-31 12:49:00,
2014-10-31 08:54:00,39.6,37.2,30.10,ESE,106,0.0,1.0,91,0.00,,,0.00,Wunderground v.1.15,2014-10-31 12:54:00,
2014-10-31 08:59:00,39.7,36.7,30.10,ESE,106,0.0,1.0,89,0.00,,,0.00,Wunderground v.1.15,2014-10-31 12:59:00,
2014-10-31 09:04:00,40.0,37.0,30.10,East,97,0.0,1.0,89,0.00,,,0.00,Wunderground v.1.15,2014-10-31 13:04:00,
2014-10-31 09:09:00,40.1,36.8,30.10,SE,146,0.0,1.0,88,0.00,,,0.00,Wunderground v.1.15,2014-10-31 13:09:00,
2014-10-31 09:14:00,40.1,36.2,30.10,ESE,103,0.0,1.0,86,0.00,,,0.00,Wunderground v.1.15,2014-10-31 13:14:00,
2014-10-31 09:19:00,40.2,36.3,30.10,ESE,106,0.0,1.0,86,0.00,,,0.00,Wunderground v.1.15,2014-10-31 13:19:00,
2014-10-31 09:24:00,40.3,36.4,30.10,ESE,103,0.0,2.0,86,0.00,,,0.00,Wunderground v.1.15,2014-10-31 13:24:00,
2014-10-31 09:29:00,40.4,36.2,30.09,ESE,103,1.0,2.0,85,0.00,,,0.00,Wunderground v.1.15,2014-10-31 13:29:00,
2014-10-31 09:34:00,40.6,36.7,30.09,East,92,0.0,3.0,86,0.00,,,0.00,Wunderground v.1.15,2014-10-31 13:34:00,
2014-10-31 09:39:00,40.8,35.4,30.09,ESE,105,1.0,5.0,81,0.00,,,0.00,Wunderground v.1.15,2014-10-31 13:39:00,
2014-10-31 09:44:00,41.0,34.7,30.09,ESE,120,1.0,3.0,78,0.00,,,0.00,Wunderground v.1.15,2014-10-31 13:44:00,
2014-10-31 09:49:00,41.1,33.8,30.09,ENE,61,2.0,6.0,75,0.00,,,0.00,Wunderground v.1.15,2014-10-31 13:49:00,
2014-10-31 09:54:00,41.2,34.2,30.09,ESE,109,2.0,3.0,76,0.00,,,0.00,Wunderground v.1.15,2014-10-31 13:54:00,
2014-10-31 09:59:00,41.5,33.8,30.09,ESE,103,0.0,5.0,74,0.00,,,0.00,Wunderground v.1.15,2014-10-31 13:59:00,
2014-10-31 10:04:00,41.5,33.5,30.09,East,101,1.0,3.0,73,0.00,,,0.00,Wunderground v.1.15,2014-10-31 14:04:00,
2014-10-31 10:09:00,41.6,33.6,30.09,East,98,0.0,3.0,73,0.00,,,0.00,Wunderground v.1.15,2014-10-31 14:09:00,
2014-10-31 10:14:00,41.7,34.0,30.09,East,101,3.0,4.0,74,0.00,,,0.00,Wunderground v.1.15,2014-10-31 14:14:00,
2014-10-31 10:19:00,41.8,34.5,30.09,SE,134,0.0,4.0,75,0.00,,,0.00,Wunderground v.1.15,2014-10-31 14:19:00,
2014-10-31 10:24:00,41.9,33.9,30.09,ESE,113,0.0,5.0,73,0.00,,,0.00,Wunderground v.1.15,2014-10-31 14:24:00,
2014-10-31 10:29:00,42.2,34.5,30.08,SE,132,0.0,5.0,74,0.00,,,0.00,Wunderground v.1.15,2014-10-31 14:29:00,
2014-10-31 10:34:00,42.3,34.3,30.09,ESE,102,0.0,2.0,73,0.00,,,0.00,Wunderground v.1.15,2014-10-31 14:34:00,
2014-10-31 10:39:00,42.4,35.0,30.09,South,190,1.0,6.0,75,0.00,,,0.00,Wunderground v.1.15,2014-10-31 14:39:00,
2014-10-31 10:44:00,42.5,34.8,30.09,ESE,116,2.0,5.0,74,0.00,,,0.00,Wunderground v.1.15,2014-10-31 14:44:00,
2014-10-31 10:49:00,42.3,34.3,30.09,East,101,2.0,5.0,73,0.00,,,0.00,Wunderground v.1.15,2014-10-31 14:49:00,
2014-10-31 10:55:00,42.3,34.9,30.08,ESE,108,2.0,3.0,75,0.00,,,0.00,Wunderground v.1.15,2014-10-31 14:55:00,
2014-10-31 11:01:00,42.7,35.0,30.08,ESE,117,2.0,3.0,74,0.00,,,0.00,Wunderground v.1.15,2014-10-31 15:01:00,
2014-10-31 11:06:00,42.7,33.9,30.08,SE,125,1.0,3.0,71,0.00,,,0.00,Wunderground v.1.15,2014-10-31 15:06:00,
2014-10-31 11:11:00,42.9,34.5,30.08,East,91,2.0,3.0,72,0.00,,,0.00,Wunderground v.1.15,2014-10-31 15:11:00,
2014-10-31 11:16:00,43.1,34.7,30.08,WSW,247,0.0,4.0,72,0.00,,,0.00,Wunderground v.1.15,2014-10-31 15:16:00,
2014-10-31 11:21:00,43.4,34.3,30.08,ESE,105,1.0,2.0,70,0.00,,,0.00,Wunderground v.1.15,2014-10-31 15:21:00,
2014-10-31 11:26:00,43.5,34.0,30.08,East,98,1.0,4.0,69,0.00,,,0.00,Wunderground v.1.15,2014-10-31 15:26:00,
2014-10-31 11:31:00,43.7,34.9,30.08,ESE,117,0.0,1.0,71,0.00,,,0.00,Wunderground v.1.15,2014-10-31 15:31:00,
2014-10-31 11:36:00,44.0,34.8,30.08,ESE,123,2.0,3.0,70,0.00,,,0.00,Wunderground v.1.15,2014-10-31 15:36:00,
2014-10-31 11:41:00,44.2,35.4,30.08,East,94,1.0,1.0,71,0.00,,,0.00,Wunderground v.1.15,2014-10-31 15:41:00,
2014-10-31 11:46:00,44.2,35.0,30.07,ESE,118,0.0,3.0,70,0.00,,,0.00,Wunderground v.1.15,2014-10-31 15:46:00,
2014-10-31 11:51:00,43.9,34.0,30.08,ESE,113,1.0,5.0,68,0.00,,,0.00,Wunderground v.1.15,2014-10-31 15:51:00,
2014-10-31 11:56:00,43.7,34.6,30.07,South,183,1.0,5.0,70,0.00,,,0.00,Wunderground v.1.15,2014-10-31 15:56:00,
2014-10-31 12:01:00,43.7,34.6,30.08,ESE,112,2.0,3.0,70,0.00,,,0.00,Wunderground v.1.15,2014-10-31 16:01:00,
2014-10-31 12:06:00,43.6,34.8,30.07,ESE,103,1.0,3.0,71,0.00,,,0.00,Wunderground v.1.15,2014-10-31 16:06:00,
2014-10-31 12:11:00,43.8,34.6,30.07,East,93,2.0,5.0,70,0.00,,,0.00,Wunderground v.1.15,2014-10-31 16:11:00,
2014-10-31 12:16:00,43.8,35.0,30.07,East,96,0.0,5.0,71,0.00,,,0.00,Wunderground v.1.15,2014-10-31 16:16:00,
2014-10-31 12:21:00,44.0,35.2,30.07,East,90,1.0,1.0,71,0.00,,,0.00,Wunderground v.1.15,2014-10-31 16:21:00,
2014-10-31 12:26:00,44.0,35.2,30.07,ESE,103,2.0,3.0,71,0.00,,,0.00,Wunderground v.1.15,2014-10-31 16:26:00,
2014-10-31 12:31:00,43.9,35.1,30.07,East,86,3.0,3.0,71,0.00,,,0.00,Wunderground v.1.15,2014-10-31 16:31:00,
2014-10-31 12:36:00,43.7,35.3,30.07,ESE,103,2.0,7.0,72,0.00,,,0.00,Wunderground v.1.15,2014-10-31 16:36:00,
2014-10-31 12:41:00,43.7,35.3,30.06,ESE,108,0.0,3.0,72,0.00,,,0.00,Wunderground v.1.15,2014-10-31 16:41:00,
2014-10-31 12:46:00,43.8,35.0,30.06,East,92,3.0,3.0,71,0.00,,,0.00,Wunderground v.1.15,2014-10-31 16:46:00,
2014-10-31 12:51:00,43.6,35.2,30.06,ESE,103,4.0,5.0,72,0.00,,,0.00,Wunderground v.1.15,2014-10-31 16:51:00,
2014-10-31 12:56:00,43.8,35.7,30.06,ESE,110,1.0,5.0,73,0.00,,,0.00,Wunderground v.1.15,2014-10-31 16:56:00,
2014-10-31 13:01:00,43.8,35.4,30.06,East,101,1.0,3.0,72,0.00,,,0.00,Wunderground v.1.15,2014-10-31 17:01:00,
2014-10-31 13:06:00,43.9,35.8,30.06,East,81,2.0,3.0,73,0.00,,,0.00,Wunderground v.1.15,2014-10-31 17:06:00,
2014-10-31 13:11:00,43.9,35.8,30.06,East,93,3.0,3.0,73,0.00,,,0.00,Wunderground v.1.15,2014-10-31 17:11:00,
2014-10-31 13:16:00,44.1,36.0,30.05,East,97,2.0,3.0,73,0.00,,,0.00,Wunderground v.1.15,2014-10-31 17:16:00,
2014-10-31 13:21:00,44.2,35.7,30.05,ESE,108,2.0,3.0,72,0.00,,,0.00,Wunderground v.1.15,2014-10-31 17:21:00,
2014-10-31 13:26:00,44.2,36.1,30.05,East,85,1.0,3.0,73,0.00,,,0.00,Wunderground v.1.15,2014-10-31 17:26:00,
2014-10-31 13:31:00,44.3,36.2,30.05,ESE,103,2.0,2.0,73,0.00,,,0.00,Wunderground v.1.15,2014-10-31 17:31:00,
2014-10-31 13:36:00,44.1,35.3,30.05,East,101,1.0,4.0,71,0.00,,,0.00,Wunderground v.1.15,2014-10-31 17:36:00,
2014-10-31 13:41:00,44.1,36.0,30.05,East,99,1.0,2.0,73,0.00,,,0.00,Wunderground v.1.15,2014-10-31 17:41:00,
2014-10-31 13:46:00,44.3,35.8,30.05,East,85,2.0,3.0,72,0.00,,,0.00,Wunderground v.1.15,2014-10-31 17:46:00,
2014-10-31 13:51:00,44.1,35.6,30.05,East,88,4.0,5.0,72,0.00,,,0.00,Wunderground v.1.15,2014-10-31 17:51:00,